createdAt,value
2018-03-25T00:39:46.184Z,33.33
2018-03-25T00:42:12.922Z,31.37
2018-03-25T00:44:39.664Z,35.43
2018-03-25T00:47:06.403Z,38.00
2018-03-25T00:49:33.134Z,32.10
2018-03-25T00:51:59.875Z,34.43
2018-03-25T00:54:26.617Z,34.37
2018-03-25T00:56:53.370Z,31.30
2018-03-25T00:59:20.098Z,34.80
2018-03-25T01:01:46.829Z,32.60
2018-03-25T01:04:13.577Z,35.67
2018-03-25T01:06:40.300Z,34.27
2018-03-25T01:09:07.071Z,30.47
2018-03-25T01:11:33.811Z,34.10
2018-03-25T01:14:00.569Z,32.77
2018-03-25T01:16:27.290Z,33.07
2018-03-25T01:18:54.027Z,28.73
2018-03-25T01:21:20.762Z,33.57
2018-03-25T01:23:47.505Z,30.50
2018-03-25T01:26:14.270Z,34.13
2018-03-25T01:28:40.998Z,34.93
2018-03-25T01:31:07.743Z,31.63
2018-03-25T01:33:34.470Z,32.97
2018-03-25T01:36:01.209Z,29.73
2018-03-25T01:38:27.961Z,33.40
2018-03-25T01:40:54.680Z,30.00
2018-03-25T01:43:21.431Z,29.27
2018-03-25T01:45:48.186Z,31.10
2018-03-25T01:48:14.923Z,28.13
2018-03-25T01:50:41.650Z,32.13
2018-03-25T01:53:08.404Z,26.63
2018-03-25T01:55:35.136Z,29.23
2018-03-25T01:58:01.886Z,31.93
2018-03-25T02:00:28.626Z,32.47
2018-03-25T02:02:55.388Z,29.40
2018-03-25T02:05:22.109Z,30.10
2018-03-25T02:07:48.852Z,30.60
2018-03-25T02:10:15.579Z,32.00
2018-03-25T02:12:42.300Z,29.27
2018-03-25T02:15:09.027Z,30.30
2018-03-25T02:17:35.755Z,29.80
2018-03-25T02:20:02.503Z,30.60
2018-03-25T02:22:29.246Z,29.07
2018-03-25T02:24:55.985Z,30.43
2018-03-25T02:27:22.729Z,29.47
2018-03-25T02:29:49.474Z,25.40
2018-03-25T02:32:16.208Z,27.80
2018-03-25T02:34:42.953Z,29.90
2018-03-25T02:37:09.769Z,28.47
2018-03-25T02:39:36.493Z,30.10
2018-03-25T02:42:03.277Z,31.47
2018-03-25T02:44:30.028Z,32.07
2018-03-25T02:46:56.775Z,29.73
2018-03-25T02:49:23.516Z,29.00
2018-03-25T02:51:50.245Z,28.33
2018-03-25T02:54:16.995Z,29.13
2018-03-25T02:56:43.733Z,32.70
2018-03-25T02:59:10.475Z,29.87
2018-03-25T03:01:37.206Z,30.03
2018-03-25T03:04:03.950Z,33.03
2018-03-25T03:06:30.695Z,35.13
2018-03-25T03:08:57.436Z,28.20
2018-03-25T03:11:24.165Z,33.33
2018-03-25T03:13:50.909Z,28.33
2018-03-25T03:16:17.648Z,29.23
2018-03-25T03:18:44.410Z,33.07
2018-03-25T03:21:11.149Z,32.30
2018-03-25T03:23:37.890Z,29.60
2018-03-25T03:26:04.628Z,30.67
2018-03-25T03:28:31.365Z,34.70
2018-03-25T03:30:58.089Z,30.60
2018-03-25T03:33:24.842Z,30.50
2018-03-25T03:35:51.576Z,35.03
2018-03-25T03:38:18.378Z,33.50
2018-03-25T03:40:45.152Z,31.20
2018-03-25T03:43:11.878Z,30.53
2018-03-25T03:45:38.595Z,31.83
2018-03-25T03:48:05.346Z,34.13
2018-03-25T03:50:32.087Z,31.30
2018-03-25T03:52:58.807Z,27.10
2018-03-25T03:55:25.567Z,34.77
2018-03-25T03:57:52.304Z,30.47
2018-03-25T04:00:19.049Z,30.80
2018-03-25T04:02:45.774Z,35.37
2018-03-25T04:05:12.528Z,34.03
2018-03-25T04:07:39.262Z,32.77
2018-03-25T04:10:06.018Z,37.27
2018-03-25T04:12:32.761Z,35.37
2018-03-25T04:14:59.491Z,30.53
2018-03-25T04:17:26.217Z,33.30
2018-03-25T04:19:52.938Z,33.00
2018-03-25T04:22:19.670Z,33.20
2018-03-25T04:24:46.398Z,35.10
2018-03-25T04:27:13.115Z,36.40
2018-03-25T04:29:39.871Z,32.03
2018-03-25T04:32:06.607Z,35.03
2018-03-25T04:34:33.357Z,37.80
2018-03-25T04:37:00.121Z,37.80
2018-03-25T04:39:26.853Z,37.27
2018-03-25T04:41:53.623Z,33.23
2018-03-25T04:44:20.357Z,34.17
2018-03-25T04:46:47.106Z,36.70
2018-03-25T04:49:13.885Z,37.80
2018-03-25T04:51:41.498Z,37.03
2018-03-25T04:54:08.252Z,39.17
2018-03-25T04:56:35.038Z,34.63
2018-03-25T04:59:01.791Z,33.50
2018-03-25T05:01:28.518Z,36.43
2018-03-25T05:03:55.261Z,35.43
2018-03-25T05:06:21.992Z,35.43
2018-03-25T05:08:48.745Z,38.60
2018-03-25T05:11:15.484Z,37.97
2018-03-25T05:13:42.246Z,39.57
2018-03-25T05:16:09.058Z,36.43
2018-03-25T05:18:35.798Z,34.87
2018-03-25T05:21:02.517Z,38.20
2018-03-25T05:23:29.321Z,38.43
2018-03-25T05:25:56.057Z,47.60
2018-03-25T05:28:22.781Z,40.03
2018-03-25T05:30:49.505Z,42.10
2018-03-25T05:33:16.242Z,39.20
2018-03-25T05:35:42.971Z,41.90
2018-03-25T05:38:09.720Z,38.27
2018-03-25T05:40:36.460Z,40.67
2018-03-25T05:43:03.206Z,38.17
2018-03-25T05:45:29.929Z,41.20
2018-03-25T05:47:56.697Z,37.27
2018-03-25T05:50:23.411Z,39.17
2018-03-25T05:52:50.129Z,43.50
2018-03-25T05:55:16.867Z,39.50
2018-03-25T05:57:43.592Z,42.03
2018-03-25T06:00:10.351Z,40.53
2018-03-25T06:02:37.079Z,43.10
2018-03-25T06:05:03.826Z,43.97
2018-03-25T06:07:30.555Z,44.07
2018-03-25T06:09:57.272Z,39.27
2018-03-25T06:12:24.006Z,37.67
2018-03-25T06:14:50.748Z,42.80
2018-03-25T06:17:17.485Z,41.33
2018-03-25T06:19:44.210Z,41.23
2018-03-25T06:22:10.978Z,39.53
2018-03-25T06:24:37.720Z,42.07
2018-03-25T06:27:04.459Z,38.57
2018-03-25T06:29:31.964Z,41.87
2018-03-25T06:31:58.724Z,42.60
2018-03-25T06:34:25.537Z,43.30
2018-03-25T06:36:52.275Z,44.70
2018-03-25T06:39:19.027Z,46.90
2018-03-25T06:41:45.768Z,40.37
2018-03-25T06:44:12.517Z,41.47
2018-03-25T06:46:39.269Z,42.77
2018-03-25T06:49:06.010Z,41.50
2018-03-25T06:51:32.741Z,42.27
2018-03-25T06:53:59.470Z,47.40
2018-03-25T06:56:26.206Z,41.40
2018-03-25T06:58:52.939Z,48.97
2018-03-25T07:01:19.679Z,43.43
2018-03-25T07:03:46.408Z,47.23
2018-03-25T07:06:13.147Z,46.20
2018-03-25T07:08:39.885Z,45.13
2018-03-25T07:11:06.653Z,49.10
2018-03-25T07:13:33.411Z,45.43
2018-03-25T07:16:00.152Z,47.73
2018-03-25T07:18:26.922Z,52.10
2018-03-25T07:20:53.695Z,53.57
2018-03-25T07:23:20.439Z,52.17
2018-03-25T07:25:47.183Z,46.27
2018-03-25T07:28:13.912Z,55.27
2018-03-25T07:30:40.642Z,50.73
2018-03-25T07:33:07.397Z,55.03
2018-03-25T07:35:34.138Z,53.93
2018-03-25T07:38:00.898Z,58.93
2018-03-25T07:40:27.679Z,47.70
2018-03-25T07:42:54.407Z,50.97
2018-03-25T07:45:21.156Z,51.27
2018-03-25T07:47:47.922Z,49.83
2018-03-25T07:50:14.660Z,51.20
2018-03-25T07:52:41.424Z,49.60
2018-03-25T07:55:08.156Z,53.47
2018-03-25T07:57:34.906Z,58.33
2018-03-25T08:00:01.651Z,54.80
2018-03-25T08:02:28.390Z,52.47
2018-03-25T08:04:55.215Z,57.50
2018-03-25T08:07:21.954Z,59.90
2018-03-25T08:09:48.707Z,59.10
2018-03-25T08:12:15.475Z,58.10
2018-03-25T08:14:42.239Z,50.90
2018-03-25T08:17:08.985Z,54.87
2018-03-25T08:19:35.712Z,54.10
2018-03-25T08:22:02.434Z,60.60
2018-03-25T08:24:29.165Z,50.67
2018-03-25T08:26:55.948Z,53.07
2018-03-25T08:29:22.687Z,57.97
2018-03-25T08:31:49.438Z,53.37
2018-03-25T08:34:16.222Z,60.23
2018-03-25T08:36:42.970Z,58.93
2018-03-25T08:39:09.710Z,57.80
2018-03-25T08:41:36.450Z,57.33
2018-03-25T08:44:03.225Z,52.30
2018-03-25T08:46:29.961Z,56.80
2018-03-25T08:48:56.701Z,62.20
2018-03-25T08:51:23.428Z,58.03
2018-03-25T08:53:50.254Z,60.53
2018-03-25T08:56:16.983Z,60.77
2018-03-25T08:58:43.710Z,59.67
2018-03-25T09:01:10.455Z,62.83
2018-03-25T09:03:37.195Z,61.77
2018-03-25T09:06:03.963Z,56.33
2018-03-25T09:08:30.726Z,53.07
2018-03-25T09:10:57.464Z,66.73
2018-03-25T09:13:24.276Z,67.37
2018-03-25T09:15:51.007Z,61.13
2018-03-25T09:18:17.766Z,64.13
2018-03-25T09:20:44.538Z,62.10
2018-03-25T09:23:11.274Z,59.77
2018-03-25T09:25:38.024Z,66.53
2018-03-25T09:28:04.780Z,61.80
2018-03-25T09:30:31.525Z,71.40
2018-03-25T09:32:58.440Z,63.50
2018-03-25T09:35:25.213Z,58.93
2018-03-25T09:37:52.414Z,69.40
2018-03-25T09:40:19.207Z,74.13
2018-03-25T09:42:45.949Z,70.73
2018-03-25T09:45:12.699Z,74.23
2018-03-25T09:47:39.507Z,76.97
2018-03-25T09:50:06.283Z,73.03
2018-03-25T09:52:33.029Z,67.33
2018-03-25T09:54:59.783Z,73.63
2018-03-25T09:57:26.509Z,76.50
2018-03-25T09:59:53.294Z,72.00
2018-03-25T10:02:26.197Z,74.17
2018-03-25T10:04:53.440Z,70.60
2018-03-25T10:07:20.353Z,73.77
2018-03-25T10:09:47.236Z,79.30
2018-03-25T10:12:14.141Z,71.90
2018-03-25T10:14:40.978Z,74.07
2018-03-25T10:17:07.865Z,78.47
2018-03-25T10:19:34.718Z,71.57
2018-03-25T10:22:01.581Z,72.53
2018-03-25T10:24:28.580Z,78.00
2018-03-25T10:26:55.499Z,74.40
2018-03-25T10:29:22.294Z,71.50
2018-03-25T10:31:49.215Z,79.97
2018-03-25T10:34:16.303Z,74.70
2018-03-25T10:36:43.164Z,77.47
2018-03-25T10:39:10.195Z,80.30
2018-03-25T10:41:37.175Z,69.23
2018-03-25T10:44:04.119Z,73.97
2018-03-25T10:46:30.970Z,72.20
2018-03-25T10:48:58.017Z,78.30
2018-03-25T10:51:24.999Z,73.90
2018-03-25T10:53:51.940Z,76.03
2018-03-25T10:56:18.730Z,73.77
2018-03-25T10:58:45.749Z,73.00
2018-03-25T11:01:12.611Z,71.57
2018-03-25T11:03:39.489Z,79.03
2018-03-25T11:06:06.524Z,73.73
2018-03-25T11:08:33.363Z,69.30
2018-03-25T11:11:00.193Z,67.97
2018-03-25T11:13:27.148Z,67.30
2018-03-25T11:15:54.029Z,71.83
2018-03-25T11:18:20.939Z,67.50
2018-03-25T11:20:48.008Z,62.00
2018-03-25T11:23:15.092Z,73.40
2018-03-25T11:25:41.966Z,70.77
2018-03-25T11:28:08.722Z,66.73
2018-03-25T11:30:35.866Z,67.70
2018-03-25T11:33:02.922Z,62.80
2018-03-25T11:35:29.923Z,59.03
2018-03-25T11:37:57.097Z,68.90
2018-03-25T11:40:24.084Z,64.07
2018-03-25T11:42:50.897Z,68.53
2018-03-25T11:45:17.797Z,64.40
2018-03-25T11:47:44.770Z,55.97
2018-03-25T11:50:11.799Z,61.73
2018-03-25T11:52:38.688Z,60.60
2018-03-25T11:55:06.136Z,58.83
2018-03-25T11:57:33.077Z,55.77
2018-03-25T12:00:00.057Z,57.90
2018-03-25T12:02:26.963Z,60.30
2018-03-25T12:04:53.936Z,60.63
2018-03-25T12:07:20.824Z,62.30
2018-03-25T12:09:47.658Z,66.90
2018-03-25T12:12:14.647Z,63.90
2018-03-25T12:14:41.490Z,61.20
2018-03-25T12:17:08.367Z,57.43
2018-03-25T12:19:35.350Z,59.63
2018-03-25T12:22:02.464Z,61.30
2018-03-25T12:24:29.642Z,52.00
2018-03-25T12:26:57.684Z,54.20
2018-03-25T12:29:24.853Z,48.90
2018-03-25T12:31:51.811Z,51.13
2018-03-25T12:34:18.811Z,53.70
2018-03-25T12:36:45.945Z,52.97
2018-03-25T12:39:13.018Z,56.97
2018-03-25T12:41:39.958Z,53.50
2018-03-25T12:44:07.170Z,50.40
2018-03-25T12:46:34.199Z,50.37
2018-03-25T12:49:01.446Z,48.57
2018-03-25T12:51:28.486Z,42.67
2018-03-25T12:53:55.645Z,41.03
2018-03-25T12:56:22.659Z,44.47
2018-03-25T12:58:49.580Z,45.80
2018-03-25T13:01:16.661Z,46.70
2018-03-25T13:03:43.501Z,52.50
2018-03-25T13:06:10.318Z,50.07
2018-03-25T13:08:37.154Z,37.93
2018-03-25T13:11:04.181Z,48.23
2018-03-25T13:13:31.555Z,38.60
2018-03-25T13:15:58.567Z,46.53
2018-03-25T13:18:25.414Z,44.53
2018-03-25T13:20:52.379Z,47.67
2018-03-25T13:23:19.347Z,47.17
2018-03-25T13:25:46.195Z,48.30
2018-03-25T13:28:13.121Z,45.70
2018-03-25T13:30:39.975Z,49.90
2018-03-25T13:33:07.598Z,46.40
2018-03-25T13:35:34.369Z,47.33
2018-03-25T13:38:01.992Z,46.57
2018-03-25T13:40:28.938Z,51.00
2018-03-25T13:42:55.856Z,44.57
2018-03-25T13:45:22.639Z,44.00
2018-03-25T13:47:49.433Z,45.70
2018-03-25T13:50:16.526Z,43.63
2018-03-25T13:52:43.472Z,43.70
2018-03-25T13:55:10.408Z,42.30
2018-03-25T13:57:37.181Z,41.87
2018-03-25T14:00:04.144Z,42.67
2018-03-25T14:02:31.373Z,38.70
2018-03-25T14:04:58.236Z,38.60
2018-03-25T14:07:25.369Z,38.37
2018-03-25T14:09:52.142Z,37.37
2018-03-25T14:12:19.131Z,40.20
2018-03-25T14:14:46.085Z,37.33
2018-03-25T14:17:13.248Z,41.60
2018-03-25T14:19:40.374Z,40.40
2018-03-25T14:22:07.180Z,41.87
2018-03-25T14:24:34.070Z,41.00
2018-03-25T14:27:00.866Z,37.40
2018-03-25T14:29:27.760Z,40.43
2018-03-25T14:31:54.542Z,39.50
2018-03-25T14:34:21.331Z,41.13
2018-03-25T14:36:48.286Z,44.53
2018-03-25T14:39:15.039Z,45.37
2018-03-25T14:41:41.903Z,44.03
2018-03-25T14:44:08.750Z,44.37
2018-03-25T14:46:35.779Z,45.50
2018-03-25T14:49:02.539Z,41.80
2018-03-25T14:51:29.391Z,41.33
2018-03-25T14:53:56.334Z,39.63
2018-03-25T14:56:23.540Z,43.63
2018-03-25T14:58:50.809Z,46.73
2018-03-25T15:01:17.843Z,44.50
2018-03-25T15:03:44.588Z,38.90
2018-03-25T15:06:11.525Z,42.87
2018-03-25T15:08:38.379Z,44.70
2018-03-25T15:11:05.522Z,41.97
2018-03-25T15:13:32.606Z,45.27
2018-03-25T15:15:59.401Z,37.17
2018-03-25T15:18:26.236Z,38.67
2018-03-25T15:20:53.667Z,41.43
2018-03-25T15:23:20.552Z,41.60
2018-03-25T15:25:47.348Z,42.00
2018-03-25T15:28:14.260Z,46.80
2018-03-25T15:30:41.194Z,41.40
2018-03-25T15:33:08.127Z,41.77
2018-03-25T15:35:34.893Z,42.20
2018-03-25T15:38:01.770Z,42.07
2018-03-25T15:40:28.606Z,41.57
2018-03-25T15:42:55.502Z,39.10
2018-03-25T15:45:22.248Z,43.57
2018-03-25T15:47:49.195Z,40.47
2018-03-25T15:50:15.964Z,41.10
2018-03-25T15:52:42.876Z,45.70
2018-03-25T15:55:09.701Z,40.60
2018-03-25T15:57:36.678Z,39.13
2018-03-25T16:00:03.923Z,40.10
2018-03-25T16:02:30.886Z,41.47
2018-03-25T16:04:57.702Z,41.80
2018-03-25T16:07:24.473Z,38.17
2018-03-25T16:09:51.506Z,36.37
2018-03-25T16:12:18.370Z,37.50
2018-03-25T16:14:45.601Z,38.97
2018-03-25T16:17:12.411Z,41.33
2018-03-25T16:19:39.415Z,42.90
2018-03-25T16:22:07.040Z,37.70
2018-03-25T16:24:33.963Z,41.57
2018-03-25T16:27:01.368Z,39.57
2018-03-25T16:29:28.550Z,40.87
2018-03-25T16:31:55.891Z,45.43
2018-03-25T16:34:22.836Z,45.20
2018-03-25T16:36:49.841Z,42.97
2018-03-25T16:39:17.070Z,40.33
2018-03-25T16:41:44.145Z,40.33
2018-03-25T16:44:11.088Z,40.23
2018-03-25T16:46:39.184Z,41.03
2018-03-25T16:49:06.167Z,36.67
2018-03-25T16:51:33.065Z,41.97
2018-03-25T16:54:00.113Z,44.10
2018-03-25T16:56:26.905Z,39.07
2018-03-25T16:58:53.714Z,43.13
2018-03-25T17:01:20.504Z,36.20
2018-03-25T17:03:47.310Z,44.00
2018-03-25T17:06:14.071Z,40.50
2018-03-25T17:08:40.897Z,43.10
2018-03-25T17:11:07.922Z,44.43
2018-03-25T17:13:34.680Z,43.60
2018-03-25T17:16:02.038Z,40.50
2018-03-25T17:18:29.145Z,42.17
2018-03-25T17:20:56.117Z,41.17
2018-03-25T17:23:23.169Z,40.60
2018-03-25T17:25:50.471Z,39.33
2018-03-25T17:28:17.386Z,40.30
2018-03-25T17:30:44.295Z,44.90
2018-03-25T17:33:11.215Z,43.70
2018-03-25T17:35:38.193Z,38.83
2018-03-25T17:38:05.009Z,45.43
2018-03-25T17:40:32.092Z,46.63
2018-03-25T17:42:59.347Z,43.00
2018-03-25T17:45:26.148Z,43.27
2018-03-25T17:47:53.154Z,37.83
2018-03-25T17:50:20.385Z,45.73
2018-03-25T17:52:47.364Z,45.60
2018-03-25T17:55:14.230Z,46.00
2018-03-25T17:57:41.206Z,45.67
2018-03-25T18:00:08.032Z,48.37
2018-03-25T18:02:34.836Z,41.50
2018-03-25T18:05:01.800Z,49.53
2018-03-25T18:07:28.780Z,42.33
2018-03-25T18:09:55.733Z,45.83
2018-03-25T18:12:23.022Z,43.83
2018-03-25T18:14:49.787Z,42.03
2018-03-25T18:17:33.461Z,42.47
2018-03-25T18:19:43.276Z,44.80
2018-03-25T18:22:10.017Z,45.70
2018-03-25T18:24:36.767Z,45.63
2018-03-25T18:27:03.529Z,47.77
2018-03-25T18:29:30.261Z,42.00
2018-03-25T18:31:57.001Z,46.30
2018-03-25T18:34:23.766Z,52.33
2018-03-25T18:36:50.491Z,46.80
2018-03-25T18:39:17.222Z,44.27
2018-03-25T18:41:43.966Z,47.40
2018-03-25T18:44:10.709Z,44.73
2018-03-25T18:46:37.468Z,46.70
2018-03-25T18:49:04.199Z,46.10
2018-03-25T18:51:30.933Z,47.30
2018-03-25T18:53:57.778Z,49.47
2018-03-25T18:56:24.526Z,39.77
2018-03-25T18:58:51.265Z,43.53
2018-03-25T19:01:17.996Z,46.60
2018-03-25T19:03:44.742Z,44.30
2018-03-25T19:06:11.486Z,45.90
2018-03-25T19:08:38.236Z,44.00
2018-03-25T19:11:05.820Z,52.33
2018-03-25T19:13:32.613Z,44.70
2018-03-25T19:15:59.342Z,43.37
2018-03-25T19:18:26.105Z,43.50
2018-03-25T19:20:52.860Z,43.07
2018-03-25T19:23:19.686Z,43.93
2018-03-25T19:25:46.448Z,46.03
2018-03-25T19:28:13.214Z,45.47
2018-03-25T19:30:39.946Z,42.30
2018-03-25T19:33:06.705Z,42.97
2018-03-25T19:35:33.624Z,42.80
2018-03-25T19:38:00.417Z,44.73
2018-03-25T19:40:27.173Z,46.87
2018-03-25T19:42:53.957Z,47.77
2018-03-25T19:45:20.757Z,37.67
2018-03-25T19:47:47.606Z,44.40
2018-03-25T19:50:14.350Z,45.90
2018-03-25T19:52:41.107Z,43.20
2018-03-25T19:55:07.933Z,45.50
2018-03-25T19:57:34.667Z,46.17
2018-03-25T20:00:01.413Z,38.83
2018-03-25T20:02:28.160Z,48.03
2018-03-25T20:04:54.906Z,44.40
2018-03-25T20:07:21.654Z,43.20
2018-03-25T20:09:48.399Z,41.87
2018-03-25T20:12:15.147Z,43.23
2018-03-25T20:14:41.914Z,42.50
2018-03-25T20:17:08.675Z,40.60
2018-03-25T20:19:35.542Z,45.40
2018-03-25T20:22:02.318Z,38.60
2018-03-25T20:24:29.055Z,39.53
2018-03-25T20:26:55.800Z,38.87
2018-03-25T20:29:22.557Z,43.00
2018-03-25T20:31:49.338Z,43.43
2018-03-25T20:34:16.072Z,47.67
2018-03-25T20:36:42.833Z,41.93
2018-03-25T20:39:09.574Z,44.23
2018-03-25T20:41:36.347Z,41.20
2018-03-25T20:44:03.257Z,37.20
2018-03-25T20:46:29.997Z,41.80
2018-03-25T20:48:56.710Z,41.40
2018-03-25T20:51:23.426Z,41.03
2018-03-25T20:53:50.152Z,43.80
2018-03-25T20:56:16.892Z,43.93
2018-03-25T20:58:43.615Z,43.27
2018-03-25T21:01:10.333Z,44.43
2018-03-25T21:03:37.053Z,48.60
2018-03-25T21:06:03.782Z,44.03
2018-03-25T21:08:30.521Z,42.63
2018-03-25T21:10:57.247Z,45.10
2018-03-25T21:13:23.976Z,39.80
2018-03-25T21:15:50.701Z,45.30
2018-03-25T21:18:17.436Z,46.23
2018-03-25T21:20:44.161Z,41.47
2018-03-25T21:23:10.935Z,42.00
2018-03-25T21:25:37.680Z,46.40
2018-03-25T21:28:04.406Z,45.10
2018-03-25T21:30:31.142Z,40.27
2018-03-25T21:32:57.898Z,45.60
2018-03-25T21:35:24.653Z,41.93
2018-03-25T21:37:51.379Z,39.10
2018-03-25T21:40:18.116Z,44.77
2018-03-25T21:42:44.870Z,46.10
2018-03-25T21:45:11.685Z,41.60
2018-03-25T21:47:38.526Z,40.53
2018-03-25T21:50:05.307Z,39.87
2018-03-25T21:52:32.035Z,42.30
2018-03-25T21:54:58.748Z,43.97
2018-03-25T21:57:25.482Z,42.37
2018-03-25T21:59:52.227Z,45.00
2018-03-25T22:02:18.959Z,41.37
2018-03-25T22:04:45.694Z,42.20
2018-03-25T22:07:12.414Z,41.93
2018-03-25T22:09:39.150Z,42.97
2018-03-25T22:12:05.885Z,42.43
2018-03-25T22:14:32.618Z,40.70
2018-03-25T22:16:59.342Z,42.33
2018-03-25T22:19:26.060Z,38.03
2018-03-25T22:21:52.777Z,43.77
2018-03-25T22:24:19.510Z,39.50
2018-03-25T22:26:46.229Z,41.03
2018-03-25T22:29:12.978Z,43.90
2018-03-25T22:31:39.745Z,40.57
2018-03-25T22:34:06.465Z,40.77
2018-03-25T22:36:33.187Z,41.57
2018-03-25T22:38:59.935Z,44.20
2018-03-25T22:41:26.658Z,45.67
2018-03-25T22:43:53.382Z,44.90
2018-03-25T22:46:20.125Z,41.00
2018-03-25T22:48:47.386Z,45.20
2018-03-25T22:51:14.137Z,41.63
2018-03-25T22:53:40.858Z,44.60
2018-03-25T22:56:08.735Z,39.67
2018-03-25T22:58:35.449Z,40.70
2018-03-25T23:01:02.186Z,42.50
2018-03-25T23:03:28.926Z,43.63
2018-03-25T23:05:55.666Z,41.70
2018-03-25T23:08:22.392Z,40.00
2018-03-25T23:10:49.178Z,40.60
2018-03-25T23:13:15.966Z,45.23
2018-03-25T23:15:42.686Z,40.60
2018-03-25T23:18:09.414Z,41.77
2018-03-25T23:20:36.130Z,44.53
2018-03-25T23:23:02.857Z,42.90
2018-03-25T23:25:29.603Z,43.63
2018-03-25T23:27:56.324Z,45.67
2018-03-25T23:30:23.056Z,41.87
2018-03-25T23:32:49.789Z,41.30
2018-03-25T23:35:16.518Z,44.07
2018-03-25T23:37:43.252Z,42.40
2018-03-25T23:40:09.975Z,37.03
2018-03-25T23:42:36.703Z,43.50
2018-03-25T23:45:03.462Z,42.67
2018-03-25T23:47:30.188Z,39.00
2018-03-25T23:49:56.913Z,44.77
2018-03-25T23:52:23.641Z,43.90
2018-03-25T23:54:50.373Z,45.50
2018-03-25T23:57:17.099Z,43.80
2018-03-25T23:59:43.835Z,41.20
